createdAt,value
2017-10-20T00:01:55.173Z,13.70
2017-10-20T00:04:26.981Z,13.70
2017-10-20T00:06:57.727Z,13.80
2017-10-20T00:09:28.586Z,13.80
2017-10-20T00:12:01.294Z,13.80
2017-10-20T00:14:31.515Z,13.80
2017-10-20T00:17:01.729Z,13.70
2017-10-20T00:19:32.897Z,13.70
2017-10-20T00:22:03.134Z,13.70
2017-10-20T00:24:34.493Z,13.80
2017-10-20T00:27:04.748Z,13.80
2017-10-20T00:29:34.718Z,13.80
2017-10-20T00:32:05.610Z,13.80
2017-10-20T00:34:35.878Z,13.80
2017-10-20T00:37:05.852Z,13.80
2017-10-20T00:39:39.446Z,13.80
2017-10-20T00:42:10.392Z,13.80
2017-10-20T00:44:40.801Z,13.80
2017-10-20T00:47:12.267Z,13.80
2017-10-20T00:49:44.320Z,13.80
2017-10-20T00:52:15.566Z,13.80
2017-10-20T00:54:46.842Z,13.80
2017-10-20T00:57:17.282Z,13.80
2017-10-20T00:59:47.989Z,13.80
2017-10-20T01:02:18.430Z,13.80
2017-10-20T01:04:49.106Z,13.80
2017-10-20T01:10:58.095Z,13.70
2017-10-20T01:13:28.303Z,13.80
2017-10-20T01:15:58.765Z,13.80
2017-10-20T01:18:29.989Z,13.80
2017-10-20T01:21:01.981Z,13.90
2017-10-20T01:23:33.737Z,13.90
2017-10-20T01:26:05.829Z,14.30
2017-10-20T01:28:37.272Z,14.30
2017-10-20T01:31:08.563Z,14.30
2017-10-20T01:33:39.377Z,14.50
2017-10-20T01:36:10.503Z,14.70
2017-10-20T01:38:41.809Z,14.70
2017-10-20T01:41:12.107Z,14.70
2017-10-20T01:43:42.163Z,14.80
2017-10-20T01:46:13.473Z,14.80
2017-10-20T01:48:43.740Z,14.80
2017-10-20T01:53:54.880Z,15.00
2017-10-20T01:56:26.212Z,15.10
2017-10-20T01:58:56.570Z,15.10
2017-10-20T02:01:26.685Z,15.10
2017-10-20T02:03:57.011Z,15.10
2017-10-20T02:06:28.744Z,15.30
2017-10-20T02:08:59.093Z,15.40
2017-10-20T02:11:30.345Z,15.50
2017-10-20T02:14:03.171Z,15.50
2017-10-20T02:16:33.557Z,15.50
2017-10-20T02:19:03.477Z,15.40
2017-10-20T02:21:33.960Z,15.40
2017-10-20T02:24:04.353Z,15.60
2017-10-20T02:26:34.432Z,15.50
2017-10-20T02:29:04.608Z,15.40
2017-10-20T02:31:35.223Z,15.30
2017-10-20T02:34:05.320Z,15.30
2017-10-20T02:36:37.223Z,15.30
2017-10-20T02:39:08.305Z,15.10
2017-10-20T02:41:42.206Z,15.20
2017-10-20T02:44:14.037Z,15.00
2017-10-20T02:46:44.473Z,15.10
2017-10-20T02:49:14.683Z,15.10
2017-10-20T02:51:45.337Z,15.00
2017-10-20T02:54:15.538Z,14.90
2017-10-20T02:56:45.716Z,14.90
2017-10-20T02:59:15.960Z,14.70
2017-10-20T03:01:47.825Z,14.70
2017-10-20T03:04:19.461Z,14.60
2017-10-20T03:06:51.321Z,14.60
2017-10-20T03:09:22.468Z,14.60
2017-10-20T03:11:52.911Z,14.70
2017-10-20T03:14:24.705Z,14.70
2017-10-20T03:16:54.987Z,14.80
2017-10-20T03:19:25.277Z,14.80
2017-10-20T03:21:57.465Z,14.80
2017-10-20T03:24:27.629Z,14.80
2017-10-20T03:26:57.912Z,14.80
2017-10-20T03:29:29.580Z,15.00
2017-10-20T03:32:00.813Z,15.00
2017-10-20T03:34:30.942Z,15.10
2017-10-20T03:37:01.202Z,15.10
2017-10-20T03:39:53.085Z,15.20
2017-10-20T03:42:23.062Z,15.20
2017-10-20T03:44:55.110Z,15.30
2017-10-20T03:47:26.305Z,15.30
2017-10-20T03:49:56.373Z,15.20
2017-10-20T03:52:29.271Z,15.20
2017-10-20T03:54:59.860Z,15.20
2017-10-20T03:57:30.090Z,15.30
2017-10-20T04:02:33.261Z,15.30
2017-10-20T04:05:03.771Z,15.40
2017-10-20T04:07:34.036Z,15.40
2017-10-20T04:10:04.194Z,15.20
2017-10-20T04:12:35.473Z,15.20
2017-10-20T04:15:06.400Z,15.00
2017-10-20T04:17:36.748Z,14.90
2017-10-20T04:20:08.774Z,14.70
2017-10-20T04:22:39.510Z,14.70
2017-10-20T04:25:11.062Z,14.70
2017-10-20T04:27:41.741Z,14.60
2017-10-20T04:30:12.118Z,14.50
2017-10-20T04:32:43.820Z,14.50
2017-10-20T04:35:15.409Z,14.50
2017-10-20T04:37:49.287Z,14.50
2017-10-20T04:40:23.547Z,14.60
2017-10-20T04:42:55.594Z,14.70
2017-10-20T04:45:28.733Z,14.70
2017-10-20T04:47:59.088Z,14.70
2017-10-20T04:50:29.546Z,14.70
2017-10-20T04:53:00.461Z,14.80
2017-10-20T04:55:31.172Z,14.80
2017-10-20T04:58:01.216Z,14.70
2017-10-20T05:00:32.953Z,14.60
2017-10-20T05:03:05.401Z,14.60
2017-10-20T05:05:35.628Z,14.60
2017-10-20T05:08:05.837Z,14.60
2017-10-20T05:10:36.952Z,14.60
2017-10-20T05:13:09.453Z,14.70
2017-10-20T05:15:39.981Z,14.60
2017-10-20T05:18:11.997Z,14.60
2017-10-20T05:20:42.200Z,14.40
2017-10-20T05:23:13.046Z,14.40
2017-10-20T05:25:43.923Z,14.50
2017-10-20T05:28:14.120Z,14.60
2017-10-20T05:30:44.350Z,14.40
2017-10-20T05:33:16.217Z,14.30
2017-10-20T05:35:47.095Z,14.30
2017-10-20T05:38:18.339Z,14.30
2017-10-20T05:40:48.812Z,14.30
2017-10-20T05:43:21.217Z,14.30
2017-10-20T05:45:51.617Z,14.30
2017-10-20T05:48:21.565Z,14.50
2017-10-20T05:50:52.216Z,14.70
2017-10-20T05:53:22.268Z,14.80
2017-10-20T05:55:52.482Z,15.10
2017-10-20T05:58:23.294Z,15.10
2017-10-20T06:00:54.029Z,15.10
2017-10-20T06:03:24.071Z,15.20
2017-10-20T06:05:54.992Z,15.10
2017-10-20T06:08:24.948Z,15.10
2017-10-20T06:10:56.855Z,15.60
2017-10-20T06:13:27.468Z,15.60
2017-10-20T06:15:57.572Z,15.80
2017-10-20T06:18:29.287Z,16.00
2017-10-20T06:20:59.442Z,16.10
2017-10-20T06:23:30.222Z,15.80
2017-10-20T06:26:02.505Z,15.70
2017-10-20T06:28:33.068Z,15.60
2017-10-20T06:31:03.951Z,15.30
2017-10-20T06:33:33.924Z,15.30
2017-10-20T06:36:04.721Z,15.00
2017-10-20T06:38:35.046Z,15.00
2017-10-20T06:41:05.353Z,14.90
2017-10-20T06:43:36.937Z,14.80
2017-10-20T06:46:07.145Z,14.60
2017-10-20T06:48:38.135Z,14.70
2017-10-20T06:51:08.814Z,14.60
2017-10-20T06:53:38.913Z,14.50
2017-10-20T06:56:13.580Z,14.50
2017-10-20T06:58:44.559Z,14.40
2017-10-20T07:01:14.805Z,14.30
2017-10-20T07:03:45.200Z,14.30
2017-10-20T07:06:15.625Z,14.40
2017-10-20T07:08:46.468Z,14.40
2017-10-20T07:11:19.550Z,14.50
2017-10-20T07:13:50.108Z,14.50
2017-10-20T07:16:21.299Z,14.50
2017-10-20T07:18:52.669Z,14.50
2017-10-20T07:21:23.905Z,14.50
2017-10-20T07:23:56.241Z,14.60
2017-10-20T07:26:26.352Z,14.60
2017-10-20T07:28:56.629Z,14.60
2017-10-20T07:31:27.889Z,14.60
2017-10-20T07:33:58.953Z,14.60
2017-10-20T07:36:32.589Z,14.60
2017-10-20T07:39:02.992Z,14.60
2017-10-20T07:41:33.989Z,14.50
2017-10-20T07:44:08.837Z,14.50
2017-10-20T07:46:40.683Z,14.50
2017-10-20T07:49:16.227Z,14.40
2017-10-20T07:51:46.968Z,14.40
2017-10-20T07:54:17.273Z,14.30
2017-10-20T07:56:52.415Z,14.30
2017-10-20T07:59:23.640Z,14.30
2017-10-20T08:01:54.766Z,14.30
2017-10-20T08:04:25.898Z,14.30
2017-10-20T08:06:59.117Z,14.20
2017-10-20T08:09:30.580Z,14.20
2017-10-20T08:12:02.472Z,14.20
2017-10-20T08:14:34.069Z,14.20
2017-10-20T08:17:06.010Z,14.20
2017-10-20T08:19:37.949Z,14.30
2017-10-20T08:22:10.808Z,14.30
2017-10-20T08:24:47.070Z,14.30
2017-10-20T08:27:20.563Z,14.30
2017-10-20T08:29:51.428Z,14.40
2017-10-20T08:32:21.674Z,14.40
2017-10-20T08:34:52.661Z,14.40
2017-10-20T08:37:24.782Z,14.40
2017-10-20T08:39:54.907Z,14.40
2017-10-20T08:42:25.142Z,14.40
2017-10-20T08:44:55.275Z,14.60
2017-10-20T08:47:27.282Z,14.50
2017-10-20T08:49:58.120Z,14.50
2017-10-20T08:52:29.065Z,14.50
2017-10-20T08:54:59.534Z,14.60
2017-10-20T08:57:29.714Z,14.60
2017-10-20T09:00:00.200Z,14.60
2017-10-20T09:02:31.032Z,14.60
2017-10-20T09:05:03.673Z,14.70
2017-10-20T09:07:33.703Z,14.70
2017-10-20T09:10:06.057Z,14.90
2017-10-20T09:12:40.613Z,14.90
2017-10-20T09:15:12.420Z,14.90
2017-10-20T09:17:43.305Z,14.90
2017-10-20T09:20:17.480Z,15.10
2017-10-20T09:22:49.913Z,15.10
2017-10-20T09:25:20.340Z,15.10
2017-10-20T09:27:51.832Z,15.10
2017-10-20T09:30:29.168Z,15.10
2017-10-20T09:33:04.365Z,14.90
2017-10-20T09:35:36.011Z,15.00
2017-10-20T09:38:07.899Z,14.90
2017-10-20T09:40:38.766Z,15.00
2017-10-20T09:43:14.207Z,14.90
2017-10-20T09:45:44.437Z,14.80
2017-10-20T09:48:17.599Z,14.80
2017-10-20T09:50:48.596Z,14.70
2017-10-20T09:53:20.596Z,14.70
2017-10-20T09:55:52.212Z,14.70
2017-10-20T09:58:24.654Z,14.70
2017-10-20T10:00:58.907Z,14.60
2017-10-20T10:03:36.258Z,14.60
2017-10-20T10:06:08.927Z,14.60
2017-10-20T10:08:39.746Z,14.60
2017-10-20T10:11:12.860Z,14.40
2017-10-20T10:13:44.385Z,14.40
2017-10-20T10:16:14.726Z,14.30
2017-10-20T10:18:44.797Z,14.40
2017-10-20T10:21:14.981Z,14.40
2017-10-20T10:23:45.254Z,14.40
2017-10-20T10:26:15.904Z,14.30
2017-10-20T10:28:48.216Z,14.30
2017-10-20T10:31:18.513Z,14.30
2017-10-20T10:33:50.446Z,14.40
2017-10-20T10:36:21.397Z,14.40
2017-10-20T10:38:52.184Z,14.50
2017-10-20T10:41:22.160Z,14.50
2017-10-20T10:43:52.202Z,14.60
2017-10-20T10:46:22.388Z,14.70
2017-10-20T10:48:53.152Z,14.70
2017-10-20T10:51:23.181Z,14.60
2017-10-20T10:53:55.380Z,14.70
2017-10-20T10:58:47.133Z,14.60
2017-10-20T11:01:17.537Z,14.70
2017-10-20T11:03:47.550Z,14.70
2017-10-20T11:08:30.463Z,14.80
2017-10-20T11:11:11.378Z,14.90
2017-10-20T11:13:41.742Z,15.00
2017-10-20T11:16:12.066Z,15.00
2017-10-20T11:18:43.150Z,15.00
2017-10-20T11:21:14.047Z,15.10
2017-10-20T11:23:44.141Z,15.30
2017-10-20T11:26:18.356Z,15.70
2017-10-20T11:28:48.574Z,15.70
2017-10-20T11:31:19.548Z,16.30
2017-10-20T11:33:50.011Z,16.30
2017-10-20T11:36:20.113Z,16.60
2017-10-20T11:38:51.353Z,16.70
2017-10-20T11:41:21.494Z,16.70
2017-10-20T11:43:53.347Z,16.60
2017-10-20T11:46:27.277Z,16.40
2017-10-20T11:48:57.766Z,16.80
2017-10-20T11:51:30.014Z,16.60
2017-10-20T11:54:07.237Z,16.60
2017-10-20T11:56:38.918Z,16.60
2017-10-20T11:59:10.208Z,16.60
2017-10-20T12:01:42.122Z,16.50
2017-10-20T12:04:16.657Z,16.70
2017-10-20T12:06:49.780Z,16.90
2017-10-20T12:09:21.448Z,16.90
2017-10-20T12:11:55.037Z,17.10
2017-10-20T12:14:26.451Z,17.20
2017-10-20T12:16:57.232Z,16.90
2017-10-20T12:19:28.283Z,17.10
2017-10-20T12:21:58.375Z,17.30
2017-10-20T12:24:29.344Z,17.30
2017-10-20T12:26:59.611Z,17.10
2017-10-20T12:29:30.360Z,16.70
2017-10-20T12:32:00.486Z,16.80
2017-10-20T12:34:34.156Z,16.70
2017-10-20T12:37:04.886Z,17.00
2017-10-20T12:39:36.276Z,17.30
2017-10-20T12:42:09.632Z,17.40
2017-10-20T12:44:41.364Z,17.40
2017-10-20T12:47:11.544Z,17.50
2017-10-20T12:49:42.535Z,17.60
2017-10-20T12:52:12.577Z,17.60
2017-10-20T12:54:43.950Z,17.50
2017-10-20T12:57:14.762Z,17.70
2017-10-20T12:59:44.777Z,17.60
2017-10-20T13:02:15.485Z,17.60
2017-10-20T13:04:45.641Z,17.50
2017-10-20T13:07:19.841Z,17.60
2017-10-20T13:09:49.836Z,17.70
2017-10-20T13:12:21.077Z,17.50
2017-10-20T13:14:51.274Z,17.10
2017-10-20T13:17:21.292Z,17.40
2017-10-20T13:19:51.252Z,17.40
2017-10-20T13:22:22.395Z,17.20
2017-10-20T13:24:52.455Z,17.10
2017-10-20T13:27:24.812Z,17.00
2017-10-20T13:29:57.267Z,16.80
2017-10-20T13:32:27.681Z,16.80
2017-10-20T13:34:58.581Z,16.90
2017-10-20T13:37:28.868Z,16.60
2017-10-20T13:40:00.127Z,16.50
2017-10-20T13:42:30.362Z,16.50
2017-10-20T13:45:01.429Z,16.40
2017-10-20T13:47:31.762Z,16.30
2017-10-20T13:50:02.839Z,16.30
2017-10-20T13:52:33.864Z,16.30
2017-10-20T13:55:06.392Z,16.20
2017-10-20T13:57:39.506Z,15.90
2017-10-20T14:00:12.937Z,16.00
2017-10-20T14:02:47.748Z,15.90
2017-10-20T14:05:20.436Z,15.80
2017-10-20T14:07:53.278Z,15.70
2017-10-20T14:10:24.912Z,15.60
2017-10-20T14:12:56.215Z,15.60
2017-10-20T14:15:26.402Z,15.50
2017-10-20T14:17:58.037Z,15.60
2017-10-20T14:20:32.095Z,15.50
2017-10-20T14:23:05.420Z,15.40
2017-10-20T14:25:36.256Z,15.30
2017-10-20T14:28:07.634Z,15.20
2017-10-20T14:30:39.468Z,15.20
2017-10-20T14:33:22.961Z,15.20
2017-10-20T14:35:54.641Z,15.10
2017-10-20T14:38:26.448Z,15.10
2017-10-20T14:40:56.608Z,15.10
2017-10-20T14:43:28.146Z,15.10
2017-10-20T14:46:00.754Z,15.10
2017-10-20T14:48:36.433Z,15.00
2017-10-20T14:51:08.543Z,14.90
2017-10-20T14:53:43.737Z,14.90
2017-10-20T14:56:17.535Z,14.80
2017-10-20T14:58:48.286Z,14.70
2017-10-20T15:01:18.554Z,14.70
2017-10-20T15:03:51.236Z,14.70
2017-10-20T15:06:24.321Z,14.70
2017-10-20T15:08:54.387Z,14.70
2017-10-20T15:11:25.111Z,14.70
2017-10-20T15:13:55.149Z,14.60
2017-10-20T15:16:26.699Z,14.50
2017-10-20T15:18:56.793Z,14.40
2017-10-20T15:21:28.648Z,14.30
2017-10-20T15:24:02.210Z,14.30
2017-10-20T15:26:32.893Z,14.20
2017-10-20T15:29:04.922Z,14.00
2017-10-20T15:31:35.235Z,14.00
2017-10-20T15:34:06.255Z,14.00
2017-10-20T15:36:36.885Z,13.90
2017-10-20T15:39:08.748Z,14.00
2017-10-20T15:41:39.709Z,13.90
2017-10-20T15:44:09.707Z,14.00
2017-10-20T15:46:40.165Z,14.00
2017-10-20T15:49:12.273Z,13.80
2017-10-20T15:51:45.425Z,13.80
2017-10-20T15:54:18.865Z,13.70
2017-10-20T15:56:48.951Z,13.70
2017-10-20T15:59:19.890Z,13.70
2017-10-20T16:01:50.785Z,13.60
2017-10-20T16:04:22.925Z,13.40
2017-10-20T16:06:54.897Z,13.40
2017-10-20T16:09:27.138Z,13.40
2017-10-20T16:11:59.442Z,13.30
2017-10-20T16:14:30.349Z,13.20
2017-10-20T16:17:04.805Z,13.10
2017-10-20T16:19:36.333Z,12.90
2017-10-20T16:22:07.833Z,13.00
2017-10-20T16:24:41.926Z,12.90
2017-10-20T16:27:14.910Z,12.70
2017-10-20T16:29:51.069Z,12.60
2017-10-20T16:32:23.833Z,12.80
2017-10-20T16:34:54.652Z,12.60
2017-10-20T16:37:25.305Z,12.50
2017-10-20T16:39:56.209Z,12.40
2017-10-20T16:42:26.917Z,12.40
2017-10-20T16:45:55.906Z,12.40
2017-10-20T16:48:28.212Z,12.50
2017-10-20T16:51:00.838Z,12.40
2017-10-20T16:53:31.675Z,12.40
2017-10-20T16:56:05.575Z,12.50
2017-10-20T16:58:36.629Z,12.50
2017-10-20T17:01:09.823Z,12.60
2017-10-20T17:03:42.685Z,12.60
2017-10-20T17:06:52.748Z,12.70
2017-10-20T17:12:47.561Z,12.80
2017-10-20T17:15:46.543Z,12.80
2017-10-20T17:19:15.259Z,12.70
2017-10-20T17:22:12.679Z,12.80
2017-10-20T17:25:38.830Z,12.80
2017-10-20T17:28:13.429Z,12.80
2017-10-20T17:30:45.254Z,12.80
2017-10-20T17:33:17.646Z,12.80
2017-10-20T17:36:06.712Z,12.80
2017-10-20T17:39:08.055Z,12.70
2017-10-20T17:41:39.857Z,12.70
2017-10-20T17:44:41.468Z,12.70
2017-10-20T17:47:13.666Z,12.50
2017-10-20T17:49:44.849Z,12.50
2017-10-20T17:52:29.021Z,12.50
2017-10-20T17:54:59.006Z,12.40
2017-10-20T17:57:30.353Z,12.50
2017-10-20T18:00:00.820Z,12.50
2017-10-20T18:02:31.585Z,12.50
2017-10-20T18:05:03.267Z,12.40
2017-10-20T18:07:34.996Z,12.50
2017-10-20T18:10:06.889Z,12.50
2017-10-20T18:12:36.929Z,12.50
2017-10-20T18:15:07.751Z,12.50
2017-10-20T18:17:39.015Z,12.50
2017-10-20T18:20:11.282Z,12.50
2017-10-20T18:22:45.125Z,12.50
2017-10-20T18:25:18.415Z,12.50
2017-10-20T18:27:54.091Z,12.50
2017-10-20T18:30:25.858Z,12.50
2017-10-20T18:32:57.434Z,12.50
2017-10-20T18:35:30.166Z,12.40
2017-10-20T18:38:01.922Z,12.40
2017-10-20T18:40:33.445Z,12.40
2017-10-20T18:43:07.867Z,12.40
2017-10-20T18:45:40.070Z,12.40
2017-10-20T18:48:11.796Z,12.40
2017-10-20T18:50:43.523Z,12.30
2017-10-20T18:53:13.809Z,12.30
2017-10-20T18:55:46.986Z,12.30
2017-10-20T18:58:20.568Z,12.30
2017-10-20T19:00:52.766Z,12.30
2017-10-20T19:03:23.842Z,12.30
2017-10-20T19:05:55.712Z,12.30
2017-10-20T19:08:26.466Z,12.30
2017-10-20T19:11:03.120Z,12.30
2017-10-20T19:13:36.345Z,12.30
2017-10-20T19:16:11.473Z,12.30
2017-10-20T19:18:57.371Z,12.30
2017-10-20T19:21:30.155Z,12.20
2017-10-20T19:24:06.053Z,12.20
2017-10-20T19:26:44.537Z,12.20
2017-10-20T19:29:14.992Z,12.20
2017-10-20T19:31:47.748Z,12.20
2017-10-20T19:34:39.302Z,12.20
2017-10-20T19:37:13.772Z,12.10
2017-10-20T19:40:28.240Z,12.20
2017-10-20T19:43:06.158Z,12.10
2017-10-20T19:45:37.292Z,12.10
2017-10-20T19:48:08.571Z,12.20
2017-10-20T19:50:40.276Z,12.20
2017-10-20T19:53:10.756Z,12.20
2017-10-20T19:55:46.552Z,12.20
2017-10-20T19:58:17.466Z,12.30
2017-10-20T20:00:48.707Z,12.20
2017-10-20T20:03:21.512Z,12.20
2017-10-20T20:06:01.197Z,12.20
2017-10-20T20:09:06.578Z,12.30
2017-10-20T20:11:43.258Z,12.30
2017-10-20T20:14:13.752Z,12.30
2017-10-20T20:16:44.064Z,12.30
2017-10-20T20:19:16.729Z,12.30
2017-10-20T20:21:49.225Z,12.30
2017-10-20T20:24:21.229Z,12.40
2017-10-20T20:26:53.536Z,12.50
2017-10-20T20:29:31.964Z,12.50
2017-10-20T20:32:25.822Z,12.50
2017-10-20T20:34:58.516Z,12.50
2017-10-20T20:38:21.355Z,12.50
2017-10-20T20:40:55.813Z,12.50
2017-10-20T20:43:27.801Z,12.60
2017-10-20T20:46:18.283Z,12.50
2017-10-20T20:48:49.492Z,12.60
2017-10-20T20:54:43.345Z,12.70
2017-10-20T20:57:55.051Z,12.70
2017-10-20T21:00:41.133Z,12.80
2017-10-20T21:03:24.524Z,12.80
2017-10-20T21:06:02.832Z,12.80
2017-10-20T21:08:33.870Z,12.80
2017-10-20T21:11:04.891Z,12.80
2017-10-20T21:14:33.739Z,12.90
2017-10-20T21:17:34.456Z,12.80
2017-10-20T21:20:05.685Z,12.80
2017-10-20T21:25:25.207Z,12.90
2017-10-20T21:27:56.121Z,12.90
2017-10-20T21:33:16.243Z,13.00
2017-10-20T21:35:46.239Z,13.00
2017-10-20T21:38:18.117Z,13.00
2017-10-20T21:41:27.818Z,13.00
2017-10-20T21:44:11.581Z,13.00
2017-10-20T21:47:07.412Z,12.90
2017-10-20T21:49:37.674Z,12.90
2017-10-20T21:52:36.314Z,13.00
2017-10-20T21:55:07.780Z,13.00
2017-10-20T21:57:39.430Z,12.90
2017-10-20T22:00:11.234Z,13.00
2017-10-20T22:02:42.356Z,13.00
2017-10-20T22:05:12.717Z,13.00
2017-10-20T22:07:43.902Z,13.00
2017-10-20T22:17:04.240Z,12.90
2017-10-20T22:19:35.788Z,12.90
2017-10-20T22:22:06.674Z,12.90
2017-10-20T22:24:38.336Z,13.00
2017-10-20T22:27:08.698Z,13.00
2017-10-20T22:29:39.122Z,13.00
2017-10-20T22:32:11.519Z,13.00
2017-10-20T22:34:41.731Z,13.00
2017-10-20T22:37:11.843Z,12.90
2017-10-20T22:39:43.072Z,13.00
2017-10-20T22:42:13.640Z,12.90
2017-10-20T22:44:43.591Z,12.90
2017-10-20T22:47:14.540Z,12.90
2017-10-20T22:49:44.598Z,13.00
2017-10-20T22:52:16.384Z,13.00
2017-10-20T22:54:48.346Z,13.00
2017-10-20T22:57:20.735Z,12.90
2017-10-20T22:59:53.047Z,12.90
2017-10-20T23:02:25.716Z,12.90
2017-10-20T23:04:56.044Z,12.90
2017-10-20T23:07:26.278Z,12.80
2017-10-20T23:09:57.433Z,12.80
2017-10-20T23:12:27.386Z,12.80
2017-10-20T23:14:59.404Z,12.80
2017-10-20T23:17:30.088Z,12.80
2017-10-20T23:20:01.769Z,12.70
2017-10-20T23:22:31.959Z,12.80
2017-10-20T23:25:06.186Z,12.80
2017-10-20T23:27:38.313Z,12.70
2017-10-20T23:30:08.778Z,12.70
2017-10-20T23:32:38.791Z,12.70
2017-10-20T23:35:12.184Z,12.70
2017-10-20T23:37:43.189Z,12.70
2017-10-20T23:40:15.953Z,12.70
2017-10-20T23:42:47.189Z,12.60
2017-10-20T23:45:18.573Z,12.50
2017-10-20T23:47:50.134Z,12.50
2017-10-20T23:50:23.982Z,12.40
2017-10-20T23:52:54.421Z,12.40
2017-10-20T23:55:25.098Z,12.40
2017-10-20T23:57:56.134Z,12.40
